Time;durP1;ratioP1;P1;durP2;ratioP2;P2;SDS_P1;SDS_P2;PMS_P1;PMS_P2;Temp;Humidity;BMP_temperature;BMP_pressure;BME280_temperature;BME280_humidity;BME280_pressure;Samples;Min_cycle;Max_cycle;Signal;HPM_P1;HPM_P2
2021/09/22 00:00:00;;;;;;;738.60;693.33;;;;;;;15.18;69.23;101984.88;693179;28;44368;-69
2021/09/22 00:00:22;;;;;;;1002.47;938.85;;;;;;;15.20;69.28;101990.16;693642;28;22386;-69
2021/09/22 00:00:43;;;;;;;839.03;787.15;;;;;;;15.22;69.46;102001.69;693311;28;44369;-69
2021/09/22 00:01:05;;;;;;;1123.35;999.90;;;;;;;15.20;69.39;102001.03;693998;28;23474;-69
2021/09/22 00:01:26;;;;;;;784.35;733.45;;;;;;;15.21;69.20;101995.41;692642;28;45294;-69
2021/09/22 00:01:47;;;;;;;201.13;189.82;;;;;;;15.21;69.33;101991.84;693629;28;21494;-69
2021/09/22 00:02:08;;;;;;;178.73;168.73;;;;;;;15.19;69.24;101993.88;693790;28;22892;-69
2021/09/22 00:02:30;;;;;;;173.00;163.38;;;;;;;15.21;69.61;101998.13;693872;28;22257;-69
2021/09/22 00:02:52;;;;;;;152.45;144.07;;;;;;;15.20;69.75;101999.16;693064;28;44219;-69
2021/09/22 00:03:13;;;;;;;182.63;172.38;;;;;;;15.19;69.62;101994.75;693922;28;23846;-69
2021/09/22 00:03:34;;;;;;;171.27;161.75;;;;;;;15.12;69.74;101977.44;693479;28;23456;-70
2021/09/22 00:03:56;;;;;;;145.95;138.00;;;;;;;15.17;69.90;101990.50;693971;28;20808;-69
2021/09/22 00:04:17;;;;;;;136.77;129.43;;;;;;;15.17;69.79;101987.78;692276;28;46360;-69
2021/09/22 00:04:38;;;;;;;117.82;111.63;;;;;;;15.17;69.86;101987.78;692597;28;46427;-70
2021/09/22 00:05:00;;;;;;;132.40;125.37;;;;;;;15.17;69.79;101985.91;693205;28;45223;-69
2021/09/22 00:05:21;;;;;;;147.25;139.18;;;;;;;15.18;69.92;101989.50;691898;28;69764;-69
2021/09/22 00:05:42;;;;;;;153.88;145.40;;;;;;;15.18;69.67;101992.22;692640;28;45226;-69
2021/09/22 00:06:05;;;;;;;181.45;171.30;;;;;;;15.17;69.83;101985.06;693376;28;47906;-69
2021/09/22 00:06:26;;;;;;;207.73;196.00;;;;;;;15.17;69.82;101990.50;693853;28;22515;-69
2021/09/22 00:06:49;;;;;;;214.93;202.80;;;;;;;15.13;69.88;101984.56;693565;28;22341;-68
2021/09/22 00:07:11;;;;;;;246.02;232.13;;;;;;;15.14;69.98;101992.56;691754;28;88289;-69
2021/09/22 00:07:32;;;;;;;223.18;210.52;;;;;;;15.16;69.92;101991.50;693860;28;23662;-69
2021/09/22 00:07:53;;;;;;;254.43;239.98;;;;;;;15.14;70.00;101989.84;693561;28;22378;-69
2021/09/22 00:08:15;;;;;;;253.50;239.13;;;;;;;15.13;69.77;101988.13;693788;28;21526;-69
2021/09/22 00:08:36;;;;;;;292.92;276.27;;;;;;;15.13;70.09;101981.84;692204;28;46324;-69
2021/09/22 00:08:57;;;;;;;378.73;356.98;;;;;;;15.14;70.12;101983.56;693761;28;21516;-69
2021/09/22 00:09:18;;;;;;;483.63;455.33;;;;;;;15.13;69.83;101987.28;693203;28;45068;-69
2021/09/22 00:09:40;;;;;;;531.63;500.33;;;;;;;15.12;69.97;101985.59;693888;28;23435;-69
2021/09/22 00:10:02;;;;;;;613.70;577.10;;;;;;;15.12;69.84;101989.19;692397;28;46301;-69
2021/09/22 00:10:23;;;;;;;597.22;561.63;;;;;;;15.11;69.92;101984.75;692862;28;45235;-69
2021/09/22 00:10:44;;;;;;;636.05;597.55;;;;;;;15.10;70.08;101983.03;694054;28;22501;-69
2021/09/22 00:11:06;;;;;;;776.80;728.90;;;;;;;15.10;70.07;101988.50;693976;28;21472;-68
2021/09/22 00:11:27;;;;;;;753.17;706.95;;;;;;;15.08;70.08;101987.81;692198;28;46398;-69
2021/09/22 00:11:48;;;;;;;829.65;778.58;;;;;;;15.10;69.97;101985.75;693613;28;22371;-69
2021/09/22 00:12:09;;;;;;;996.05;934.47;;;;;;;15.11;69.95;101989.34;693525;28;21498;-69
2021/09/22 00:12:31;;;;;;;1056.47;991.38;;;;;;;15.11;70.11;101992.91;692709;28;45275;-69
2021/09/22 00:12:54;;;;;;;1143.63;999.90;;;;;;;15.09;70.10;101988.66;694131;28;23460;-69
2021/09/22 00:13:15;;;;;;;1206.20;999.90;;;;;;;15.11;70.02;101992.06;691783;28;67495;-69
2021/09/22 00:13:36;;;;;;;1200.90;999.90;;;;;;;15.10;69.98;101991.22;693327;28;23571;-69
2021/09/22 00:13:57;;;;;;;1191.28;999.90;;;;;;;15.10;70.08;101993.94;693850;28;23455;-69
2021/09/22 00:14:19;;;;;;;1173.82;999.90;;;;;;;15.09;70.17;101992.25;692920;28;22378;-70
2021/09/22 00:14:40;;;;;;;1201.13;999.90;;;;;;;15.09;69.96;101994.97;693084;28;45218;-69
2021/09/22 00:15:04;;;;;;;1200.95;999.90;;;;;;;15.08;70.07;101989.72;690974;28;21833;-69
2021/09/22 00:15:25;;;;;;;1168.28;999.90;;;;;;;15.07;70.03;101988.84;684791;28;69565;-69
2021/09/22 00:15:47;;;;;;;1180.22;999.90;;;;;;;15.07;70.19;101996.16;686050;28;46324;-70
2021/09/22 00:16:08;;;;;;;1200.60;999.90;;;;;;;15.05;70.32;101990.91;686308;28;45043;-69
2021/09/22 00:16:29;;;;;;;1189.55;999.90;;;;;;;15.07;70.58;101990.72;688372;28;22390;-69
2021/09/22 00:16:51;;;;;;;1195.28;999.90;;;;;;;15.06;70.37;101991.72;689018;28;20887;-69
2021/09/22 00:17:13;;;;;;;1210.47;999.90;;;;;;;15.05;70.54;101988.19;691426;28;22375;-69
2021/09/22 00:17:34;;;;;;;1218.13;999.90;;;;;;;15.05;70.70;101992.78;693257;28;34139;-69
2021/09/22 00:17:55;;;;;;;1214.95;999.90;;;;;;;15.03;70.50;101982.06;693342;28;22233;-69
2021/09/22 00:18:16;;;;;;;1203.15;999.90;;;;;;;15.03;70.76;101990.22;693633;28;21525;-69
2021/09/22 00:18:38;;;;;;;1205.13;999.90;;;;;;;15.04;70.86;101988.34;693304;28;22399;-69
2021/09/22 00:18:59;;;;;;;1212.47;999.90;;;;;;;15.02;70.83;101996.69;692825;28;46287;-69
2021/09/22 00:19:20;;;;;;;1213.57;999.90;;;;;;;15.03;70.63;101994.81;694417;28;1515;-69
2021/09/22 00:19:41;;;;;;;1214.28;999.90;;;;;;;15.03;70.87;101992.94;693854;28;21347;-69
2021/09/22 00:20:04;;;;;;;1210.63;999.90;;;;;;;15.02;70.71;101990.41;693662;28;22401;-69
2021/09/22 00:20:25;;;;;;;1212.03;999.90;;;;;;;15.02;70.78;101996.69;691915;28;67479;-69
2021/09/22 00:20:46;;;;;;;1210.78;999.90;;;;;;;15.02;70.87;101991.25;694031;28;22345;-69
2021/09/22 00:21:07;;;;;;;1211.28;999.90;;;;;;;15.01;70.76;101986.81;692638;28;44147;-69
2021/09/22 00:21:33;;;;;;;1214.57;999.90;;;;;;;15.04;70.73;101989.19;694277;28;13646;-68
2021/09/22 00:21:55;;;;;;;1219.05;999.90;;;;;;;15.05;70.59;101984.63;692632;28;44117;-69
2021/09/22 00:22:16;;;;;;;1219.70;999.90;;;;;;;15.04;70.67;101989.19;692792;28;47510;-69
2021/09/22 00:22:37;;;;;;;1222.15;999.90;;;;;;;15.05;70.69;101988.19;694116;28;21289;-68
2021/09/22 00:22:59;;;;;;;1225.70;999.90;;;;;;;15.04;70.66;101986.47;693872;28;23571;-69
2021/09/22 00:23:20;;;;;;;1232.50;999.90;;;;;;;15.02;70.60;101983.09;692050;28;69648;-69
2021/09/22 00:23:42;;;;;;;1232.53;999.90;;;;;;;15.06;70.48;101986.28;693565;28;22416;-69
2021/09/22 00:24:05;;;;;;;1234.82;999.90;;;;;;;15.07;70.50;101985.28;693806;28;20764;-69
2021/09/22 00:24:26;;;;;;;1208.45;999.90;;;;;;;15.06;70.54;101989.88;692311;28;69424;-69
2021/09/22 00:24:47;;;;;;;1101.38;999.90;;;;;;;15.06;70.50;101986.28;694080;28;22278;-69
2021/09/22 00:25:10;;;;;;;952.78;893.90;;;;;;;15.06;70.56;101989.88;693908;28;21443;-69
2021/09/22 00:25:32;;;;;;;971.38;910.95;;;;;;;15.07;70.70;101988.00;692077;28;69174;-69
2021/09/22 00:25:54;;;;;;;981.42;920.53;;;;;;;15.08;70.53;101987.00;692881;28;44424;-69
2021/09/22 00:26:15;;;;;;;858.23;805.10;;;;;;;15.08;70.34;101987.81;693246;28;44235;-69
2021/09/22 00:26:36;;;;;;;632.15;593.70;;;;;;;15.11;70.49;101992.06;693030;28;45221;-69
2021/09/22 00:26:58;;;;;;;371.67;350.13;;;;;;;15.11;70.24;101987.47;693267;28;21498;-69
2021/09/22 00:27:19;;;;;;;521.60;490.95;;;;;;;15.13;70.10;101993.56;692959;28;44391;-69
2021/09/22 00:27:42;;;;;;;665.83;626.03;;;;;;;15.13;70.06;101992.72;693509;28;22373;-68
2021/09/22 00:28:03;;;;;;;619.30;582.83;;;;;;;15.11;70.05;101992.91;692803;28;45381;-69
2021/09/22 00:28:27;;;;;;;734.20;690.20;;;;;;;15.14;69.92;101992.56;692267;28;68609;-68
2021/09/22 00:28:48;;;;;;;907.17;851.97;;;;;;;15.16;69.95;101991.50;692620;28;44567;-69
2021/09/22 00:29:09;;;;;;;681.97;641.08;;;;;;;15.13;70.02;101988.13;689326;28;22380;-69
2021/09/22 00:29:31;;;;;;;964.35;905.38;;;;;;;15.17;69.98;101990.50;687683;28;69520;-69
2021/09/22 00:29:53;;;;;;;1031.80;968.47;;;;;;;15.16;69.83;101986.94;689680;28;23473;-69
2021/09/22 00:30:15;;;;;;;1034.70;971.50;;;;;;;15.16;70.07;101986.06;688396;28;47341;-69
2021/09/22 00:30:37;;;;;;;1090.72;999.90;;;;;;;15.16;70.08;101983.34;689286;28;46426;-69
2021/09/22 00:30:58;;;;;;;1150.68;999.90;;;;;;;15.17;70.00;101987.78;688505;28;44465;-69
2021/09/22 00:31:20;;;;;;;1182.90;999.90;;;;;;;15.16;70.14;101984.22;693429;28;22540;-69
2021/09/22 00:31:42;;;;;;;1200.45;999.90;;;;;;;15.16;70.10;101986.94;693712;28;23409;-69
2021/09/22 00:32:03;;;;;;;1201.25;999.90;;;;;;;15.16;70.05;101988.78;692492;28;44162;-69
2021/09/22 00:32:25;;;;;;;1200.78;999.90;;;;;;;15.13;70.19;101976.41;689594;28;46403;-69
2021/09/22 00:32:47;;;;;;;1197.07;999.90;;;;;;;15.16;70.21;101983.34;690691;28;44389;-69
2021/09/22 00:33:08;;;;;;;1196.80;999.90;;;;;;;15.14;70.26;101987.13;689438;28;46361;-69
2021/09/22 00:33:30;;;;;;;1196.80;999.90;;;;;;;15.14;70.08;101986.28;689361;28;45282;-69
2021/09/22 00:33:51;;;;;;;1182.15;999.90;;;;;;;15.13;70.32;101979.97;690603;28;21300;-69
2021/09/22 00:34:13;;;;;;;1201.45;999.90;;;;;;;15.13;70.24;101979.13;691374;28;23460;-69
2021/09/22 00:34:35;;;;;;;1206.13;999.90;;;;;;;15.13;70.28;101988.13;687338;28;46222;-69
2021/09/22 00:34:56;;;;;;;1206.20;999.90;;;;;;;15.14;70.03;101984.41;688257;28;23629;-69
2021/09/22 00:35:17;;;;;;;1208.68;999.90;;;;;;;15.11;70.15;101982.03;690441;28;23408;-69
2021/09/22 00:35:38;;;;;;;1194.97;999.90;;;;;;;15.16;70.13;101986.06;691039;28;23683;-69
2021/09/22 00:36:00;;;;;;;1075.95;999.90;;;;;;;15.16;69.83;101984.22;691129;28;21541;-69
2021/09/22 00:36:21;;;;;;;1158.78;999.90;;;;;;;15.14;69.63;101978.97;687836;28;45328;-69
2021/09/22 00:36:42;;;;;;;1197.72;999.90;;;;;;;15.16;69.90;101981.50;689061;28;23475;-69
2021/09/22 00:37:06;;;;;;;1167.82;999.90;;;;;;;15.19;69.69;101986.59;693160;28;23460;-69
2021/09/22 00:37:28;;;;;;;1162.97;999.90;;;;;;;15.20;69.57;101982.81;689030;28;92986;-69
2021/09/22 00:37:49;;;;;;;1165.72;999.90;;;;;;;15.21;69.29;101979.09;689834;28;45222;-69
2021/09/22 00:38:10;;;;;;;1160.40;999.90;;;;;;;15.22;69.31;101982.66;691628;28;23452;-69
2021/09/22 00:38:32;;;;;;;1131.28;999.90;;;;;;;15.21;69.50;101987.25;689967;28;44982;-69
2021/09/22 00:38:54;;;;;;;1188.65;999.90;;;;;;;15.21;69.32;101989.13;691133;28;22369;-69
2021/09/22 00:39:16;;;;;;;1208.00;999.90;;;;;;;15.21;69.58;101983.69;690768;28;46379;-68
2021/09/22 00:39:37;;;;;;;1178.95;999.90;;;;;;;15.21;69.46;101983.69;692673;28;45027;-69
2021/09/22 00:39:58;;;;;;;895.72;839.85;;;;;;;15.21;69.21;101984.53;690596;28;22361;-69
2021/09/22 00:40:21;;;;;;;825.40;774.55;;;;;;;15.22;69.33;101983.50;687513;28;46367;-69
2021/09/22 00:40:42;;;;;;;849.10;796.80;;;;;;;15.22;69.27;101979.94;690262;28;45250;-69
2021/09/22 00:41:03;;;;;;;907.65;851.55;;;;;;;15.21;69.11;101983.69;690743;28;24178;-69
2021/09/22 00:41:24;;;;;;;841.72;789.90;;;;;;;15.19;69.42;101986.59;690586;28;22185;-69
2021/09/22 00:41:46;;;;;;;1002.70;940.70;;;;;;;15.19;69.54;101983.00;691217;28;21452;-69
2021/09/22 00:42:08;;;;;;;961.15;901.60;;;;;;;15.18;69.44;101989.50;690200;28;45242;-69
2021/09/22 00:42:29;;;;;;;1050.75;985.58;;;;;;;15.19;69.20;101989.31;693604;28;22359;-68
2021/09/22 00:42:50;;;;;;;856.10;803.05;;;;;;;15.19;69.32;101983.88;694019;28;21434;-69
2021/09/22 00:43:12;;;;;;;1100.47;999.90;;;;;;;15.20;69.20;101987.44;690615;28;21520;-68
2021/09/22 00:43:33;;;;;;;1058.20;990.63;;;;;;;15.19;69.46;101978.44;688668;28;69383;-69
2021/09/22 00:43:54;;;;;;;964.50;904.72;;;;;;;15.19;69.33;101974.84;690807;28;44098;-69
2021/09/22 00:44:16;;;;;;;965.67;905.88;;;;;;;15.20;69.41;101980.09;690318;28;21191;-69
2021/09/22 00:44:47;;;;;;;1000.47;938.50;;;;;;;15.20;69.15;101980.09;690187;28;46286;-69
2021/09/22 00:45:09;;;;;;;939.97;881.50;;;;;;;15.20;69.25;101979.25;685407;28;137832;-69
2021/09/22 00:45:31;;;;;;;981.90;920.60;;;;;;;15.22;69.36;101985.38;689639;28;46432;-69
2021/09/22 00:45:53;;;;;;;760.10;713.25;;;;;;;15.17;69.28;101980.44;686633;28;22404;-69
2021/09/22 00:46:14;;;;;;;830.60;779.22;;;;;;;15.20;69.41;101984.72;685203;28;45325;-69
2021/09/22 00:46:35;;;;;;;833.92;782.42;;;;;;;15.20;69.21;101981.97;686931;28;22407;-69
2021/09/22 00:46:56;;;;;;;684.55;642.78;;;;;;;15.18;69.40;101976.72;687363;28;22478;-69
2021/09/22 00:47:17;;;;;;;584.95;549.88;;;;;;;15.18;69.26;101978.59;685614;28;46275;-69
2021/09/22 00:47:42;;;;;;;716.55;673.00;;;;;;;15.17;69.17;101979.63;680113;28;65623;-69
2021/09/22 00:48:13;;;;;;;967.00;907.22;;;;;;;15.17;69.46;101983.19;682645;28;135888;-69
2021/09/22 00:48:40;;;;;;;1036.13;971.90;;;;;;;15.13;69.15;101977.25;683589;28;137618;-69
2021/09/22 00:49:04;;;;;;;1104.97;999.90;;;;;;;15.17;69.41;101985.91;683526;28;69267;-69
2021/09/22 00:49:32;;;;;;;1179.55;999.90;;;;;;;15.14;69.40;101972.69;678823;28;136538;-69
2021/09/22 00:49:53;;;;;;;1195.95;999.90;;;;;;;15.18;69.26;101979.44;680900;29;21508;-69
2021/09/22 00:50:15;;;;;;;1196.57;999.90;;;;;;;15.19;69.38;101983.88;679642;29;46224;-69
2021/09/22 00:50:37;;;;;;;1215.50;999.90;;;;;;;15.19;69.23;101977.56;679833;29;21540;-69
2021/09/22 00:50:59;;;;;;;1147.93;999.90;;;;;;;15.18;69.05;101975.88;679728;28;45369;-69
2021/09/22 00:51:20;;;;;;;1003.40;940.65;;;;;;;15.17;69.23;101976.91;680424;28;45252;-69
2021/09/22 00:51:41;;;;;;;1100.55;999.90;;;;;;;15.18;69.37;101982.16;680890;28;22386;-69
2021/09/22 00:52:04;;;;;;;1124.47;999.90;;;;;;;15.17;68.98;101983.19;686243;28;21541;-69
2021/09/22 00:52:26;;;;;;;1186.65;999.90;;;;;;;15.15;69.24;101977.06;686495;28;69357;-69
2021/09/22 00:52:47;;;;;;;1192.53;999.90;;;;;;;15.18;69.20;101984.03;685123;28;45218;-69
2021/09/22 00:53:10;;;;;;;1175.47;999.90;;;;;;;15.18;69.09;101979.44;685947;28;22378;-69
2021/09/22 00:53:32;;;;;;;886.30;830.95;;;;;;;15.14;69.15;101976.22;685439;28;67488;-69
2021/09/22 00:53:54;;;;;;;728.83;684.00;;;;;;;15.17;69.17;101977.72;686757;28;46511;-69
2021/09/22 00:54:15;;;;;;;741.00;693.90;;;;;;;15.18;68.99;101976.72;686374;28;45150;-70
2021/09/22 00:54:36;;;;;;;1135.38;999.90;;;;;;;15.20;68.90;101971.94;686155;28;46419;-69
2021/09/22 00:54:58;;;;;;;791.78;743.20;;;;;;;15.20;68.92;101973.81;686016;28;21552;-70
2021/09/22 00:55:20;;;;;;;743.40;697.92;;;;;;;15.17;68.97;101976.91;684710;28;67516;-69
2021/09/22 00:55:43;;;;;;;747.97;702.05;;;;;;;15.20;68.75;101977.38;687411;28;46257;-69
2021/09/22 00:56:05;;;;;;;906.45;849.83;;;;;;;15.20;68.82;101971.94;687899;28;44286;-69
2021/09/22 00:56:27;;;;;;;1076.85;999.90;;;;;;;15.21;68.96;101979.09;689688;28;46306;-69
2021/09/22 00:56:48;;;;;;;490.55;458.58;;;;;;;15.16;68.78;101969.75;690179;28;47025;-69
2021/09/22 00:57:10;;;;;;;0.40;0.40;;;;;;;15.22;68.99;101982.66;686545;28;22402;-69
2021/09/22 00:57:40;;;;;;;0.20;0.20;;;;;;;15.19;68.84;101975.69;684170;28;45263;-69
2021/09/22 00:58:02;;;;;;;0.40;0.40;;;;;;;15.20;68.96;101981.97;680477;28;136281;-69
2021/09/22 00:58:23;;;;;;;0.30;0.30;;;;;;;15.19;68.96;101989.31;682266;28;46365;-69
2021/09/22 00:58:44;;;;;;;0.20;0.20;;;;;;;15.17;68.91;101974.19;683526;28;44320;-69
2021/09/22 00:59:05;;;;;;;0.40;0.40;;;;;;;15.20;69.06;101985.53;686052;28;45071;-70
2021/09/22 00:59:27;;;;;;;0.50;0.50;;;;;;;15.18;68.95;101975.88;686033;28;44405;-69
2021/09/22 00:59:48;;;;;;;0.30;0.30;;;;;;;15.14;69.00;101973.50;687289;28;46285;-69
2021/09/22 01:00:10;;;;;;;0.40;0.40;;;;;;;15.18;69.17;101976.72;683010;28;46382;-69
2021/09/22 01:00:32;;;;;;;0.40;0.40;;;;;;;15.19;69.05;101983.00;682754;28;44311;-69
2021/09/22 01:00:54;;;;;;;0.40;0.40;;;;;;;15.17;68.95;101980.44;686148;28;23714;-69
2021/09/22 01:01:15;;;;;;;0.40;0.40;;;;;;;15.14;69.04;101978.97;683803;28;69481;-70
2021/09/22 01:01:36;;;;;;;0.47;0.47;;;;;;;15.16;69.15;101980.63;684919;28;46424;-69
2021/09/22 01:01:58;;;;;;;0.50;0.50;;;;;;;15.14;68.97;101978.97;686651;28;22351;-70
2021/09/22 01:02:20;;;;;;;0.57;0.57;;;;;;;15.14;69.08;101978.97;687221;28;21469;-69
2021/09/22 01:02:46;;;;;;;0.52;0.52;;;;;;;15.16;69.18;101980.63;687493;28;45058;-69
2021/09/22 01:03:08;;;;;;;0.50;0.50;;;;;;;15.14;69.20;101984.41;685239;28;138121;-69
2021/09/22 01:03:30;;;;;;;0.40;0.40;;;;;;;15.14;69.17;101980.84;688082;28;21727;-69
2021/09/22 01:03:51;;;;;;;0.52;0.52;;;;;;;15.14;69.14;101984.41;687129;28;44393;-69
2021/09/22 01:04:22;;;;;;;0.50;0.50;;;;;;;15.13;68.87;101981.84;690521;28;96865;-70
2021/09/22 01:04:43;;;;;;;0.43;0.43;;;;;;;15.11;69.08;101984.75;693360;28;22391;-69
2021/09/22 01:05:05;;;;;;;0.50;0.50;;;;;;;15.13;69.09;101987.28;693576;28;23441;-69
2021/09/22 01:05:27;;;;;;;0.80;0.80;;;;;;;15.15;68.97;101987.97;692644;28;46159;-69
2021/09/22 01:05:49;;;;;;;0.55;0.55;;;;;;;15.17;68.92;101977.72;693071;28;44381;-69
2021/09/22 01:06:14;;;;;;;0.60;0.60;;;;;;;15.18;68.65;101984.88;693452;28;44421;-69
2021/09/22 01:06:37;;;;;;;0.70;0.70;;;;;;;15.18;68.67;101978.59;690602;28;115198;-69
2021/09/22 01:06:58;;;;;;;0.55;0.55;;;;;;;15.14;68.67;101981.69;693694;28;5645;-69
2021/09/22 01:07:19;;;;;;;0.55;0.55;;;;;;;15.17;68.92;101983.19;693157;28;23314;-70
2021/09/22 01:07:42;;;;;;;0.88;0.88;;;;;;;15.18;68.76;101981.31;690677;28;22380;-70
2021/09/22 01:08:05;;;;;;;0.90;0.90;;;;;;;15.16;68.73;101973.34;684194;28;90401;-69
2021/09/22 01:08:28;;;;;;;0.50;0.50;;;;;;;15.17;68.83;101976.91;682060;28;69342;-69
2021/09/22 01:08:50;;;;;;;0.57;0.57;;;;;;;15.16;68.93;101976.06;681633;28;69197;-69
2021/09/22 01:09:11;;;;;;;0.60;0.60;;;;;;;15.17;68.93;101977.72;684481;28;21338;-69
2021/09/22 01:09:33;;;;;;;0.60;0.60;;;;;;;15.16;68.79;101976.06;685512;28;69299;-70
2021/09/22 01:09:55;;;;;;;0.60;0.60;;;;;;;15.14;68.84;101978.97;690353;28;23434;-69
2021/09/22 01:10:17;;;;;;;0.80;0.80;;;;;;;15.14;69.00;101980.84;691981;28;45272;-69
2021/09/22 01:10:38;;;;;;;0.82;0.82;;;;;;;15.12;68.96;101983.75;693069;28;23501;-69
2021/09/22 01:10:59;;;;;;;3.33;3.22;;;;;;;15.11;68.95;101990.19;690609;28;22399;-69
2021/09/22 01:11:20;;;;;;;7.18;6.97;;;;;;;15.10;69.03;101974.88;689872;28;46356;-69
2021/09/22 01:11:42;;;;;;;14.50;14.00;;;;;;;15.07;68.96;101971.69;691478;28;21522;-69
2021/09/22 01:12:07;;;;;;;143.45;135.50;;;;;;;15.09;69.01;101978.66;692073;28;46325;-69
2021/09/22 01:12:28;;;;;;;698.63;656.00;;;;;;;15.10;69.29;101983.03;691189;28;92275;-69
2021/09/22 01:12:49;;;;;;;763.47;716.60;;;;;;;15.11;69.00;101984.75;691889;28;22410;-69
2021/09/22 01:13:11;;;;;;;863.10;809.63;;;;;;;15.09;68.92;101970.47;693195;28;21385;-70
2021/09/22 01:13:32;;;;;;;911.38;855.00;;;;;;;15.06;69.18;101976.28;688606;28;69779;-69
2021/09/22 01:13:54;;;;;;;850.67;798.33;;;;;;;15.09;69.00;101977.78;685008;28;46222;-70
2021/09/22 01:14:15;;;;;;;706.22;662.80;;;;;;;15.09;69.16;101978.66;684554;28;21533;-69
2021/09/22 01:14:37;;;;;;;820.78;769.85;;;;;;;15.09;69.14;101975.06;684587;28;21547;-70
2021/09/22 01:14:58;;;;;;;872.63;818.42;;;;;;;15.05;69.32;101969.13;685782;28;46286;-69
2021/09/22 01:15:27;;;;;;;877.63;823.38;;;;;;;15.07;69.27;101967.06;686726;28;22374;-69
2021/09/22 01:15:49;;;;;;;980.97;919.95;;;;;;;15.09;69.03;101975.94;687791;28;138013;-70
2021/09/22 01:16:11;;;;;;;1048.05;981.58;;;;;;;15.09;69.23;101980.50;688318;28;22340;-69
2021/09/22 01:16:39;;;;;;;668.83;627.10;;;;;;;15.09;69.17;101977.78;684762;28;45337;-69
2021/09/22 01:17:00;;;;;;;380.63;358.58;;;;;;;15.08;69.33;101979.66;680903;28;137953;-69
2021/09/22 01:17:22;;;;;;;304.65;287.05;;;;;;;15.06;69.07;101981.72;685005;28;39571;-69
2021/09/22 01:17:43;;;;;;;339.35;319.67;;;;;;;15.07;69.16;101972.50;686584;28;23494;-69
2021/09/22 01:18:08;;;;;;;265.17;249.98;;;;;;;15.04;69.29;101969.31;690331;28;22381;-69
2021/09/22 01:18:29;;;;;;;282.58;266.40;;;;;;;15.07;69.22;101977.13;687702;28;115034;-69
2021/09/22 01:18:50;;;;;;;462.17;434.77;;;;;;;15.08;68.97;101984.25;690664;28;44334;-69
2021/09/22 01:19:12;;;;;;;449.17;422.67;;;;;;;15.07;69.18;101977.13;691220;28;22390;-69
2021/09/22 01:19:34;;;;;;;353.93;333.37;;;;;;;15.04;69.44;101966.59;688097;28;44145;-69
2021/09/22 01:19:58;;;;;;;302.40;284.92;;;;;;;15.06;69.32;101978.13;688976;28;46413;-69
2021/09/22 01:20:19;;;;;;;5.78;5.57;;;;;;;15.05;69.43;101984.63;686177;28;114948;-69
2021/09/22 01:20:42;;;;;;;27.90;26.65;;;;;;;15.01;69.53;101965.06;689852;28;46721;-69
2021/09/22 01:21:04;;;;;;;75.05;71.28;;;;;;;15.04;69.31;101972.88;687238;28;45226;-69
2021/09/22 01:21:27;;;;;;;469.88;441.02;;;;;;;15.03;69.62;101979.34;685001;28;14191;-69
2021/09/22 01:21:54;;;;;;;421.48;396.17;;;;;;;15.05;69.31;101974.56;681907;28;135857;-69
2021/09/22 01:22:18;;;;;;;293.67;276.85;;;;;;;15.03;69.56;101975.75;681849;28;115180;-69
2021/09/22 01:22:55;;;;;;;212.98;200.85;;;;;;;15.03;69.45;101978.47;681128;28;137494;-69
2021/09/22 01:23:17;;;;;;;276.77;260.67;;;;;;;15.02;69.64;101980.38;686099;28;69426;-69
2021/09/22 01:23:40;;;;;;;340.88;320.70;;;;;;;15.03;69.62;101975.75;685361;28;67397;-69
2021/09/22 01:24:04;;;;;;;480.27;451.33;;;;;;;15.00;69.38;101976.97;684816;28;92274;-70
2021/09/22 01:24:26;;;;;;;655.22;614.38;;;;;;;15.01;69.50;101981.38;683830;28;22380;-69
2021/09/22 01:24:48;;;;;;;698.63;654.47;;;;;;;15.01;69.62;101977.81;685067;28;69445;-69
2021/09/22 01:25:11;;;;;;;550.60;517.45;;;;;;;15.02;69.44;101979.53;688145;28;21281;-69
2021/09/22 01:25:33;;;;;;;724.85;680.30;;;;;;;15.01;69.73;101981.38;686177;28;67476;-69
2021/09/22 01:25:56;;;;;;;821.45;770.58;;;;;;;15.02;69.57;101982.25;683773;28;44114;-69
2021/09/22 01:26:18;;;;;;;1022.70;958.67;;;;;;;15.01;69.37;101984.09;682037;28;90863;-70
2021/09/22 01:26:40;;;;;;;1182.18;999.90;;;;;;;15.02;69.73;101988.53;684012;28;21497;-70
2021/09/22 01:27:01;;;;;;;670.58;627.78;;;;;;;15.02;69.57;101985.81;681941;28;44392;-69
2021/09/22 01:27:23;;;;;;;234.05;220.73;;;;;;;15.01;69.46;101980.53;683116;28;23504;-69
2021/09/22 01:27:47;;;;;;;266.63;251.35;;;;;;;15.02;69.53;101987.69;678027;28;69227;-69
2021/09/22 01:28:08;;;;;;;333.63;314.30;;;;;;;15.01;69.60;101989.53;680710;28;69410;-69
2021/09/22 01:28:30;;;;;;;221.60;209.02;;;;;;;15.00;69.39;101992.44;681288;28;45206;-69
2021/09/22 01:28:55;;;;;;;392.70;368.83;;;;;;;15.00;69.77;101993.31;682498;28;115268;-69
2021/09/22 01:29:17;;;;;;;482.10;452.92;;;;;;;15.02;69.69;101998.56;687365;28;46408;-69
2021/09/22 01:29:42;;;;;;;253.57;239.15;;;;;;;15.00;69.42;101987.88;683636;28;137829;-69
2021/09/22 01:30:04;;;;;;;322.73;304.10;;;;;;;15.01;69.63;101989.53;686369;28;23430;-69
2021/09/22 01:30:26;;;;;;;338.33;318.83;;;;;;;15.02;69.53;101993.97;686738;28;46408;-69
2021/09/22 01:30:48;;;;;;;219.10;206.80;;;;;;;15.04;69.66;101999.22;686100;28;44350;-69
2021/09/22 01:31:09;;;;;;;311.83;293.33;;;;;;;14.98;69.72;101983.63;687246;28;46145;-69
2021/09/22 01:31:33;;;;;;;693.40;650.67;;;;;;;15.02;69.73;101993.97;686609;28;46430;-69
2021/09/22 01:31:54;;;;;;;720.65;675.50;;;;;;;15.00;69.31;101996.03;685371;28;68147;-69
2021/09/22 01:32:16;;;;;;;971.95;908.90;;;;;;;15.00;69.82;101993.31;688058;28;23336;-69
2021/09/22 01:32:47;;;;;;;331.50;310.45;;;;;;;15.00;69.76;101993.31;688300;28;47038;-69
2021/09/22 01:33:09;;;;;;;86.00;81.35;;;;;;;15.02;69.90;101995.84;684467;28;136090;-69
2021/09/22 01:33:52;;;;;;;157.00;147.65;;;;;;;15.01;69.49;101986.81;688150;28;137554;-69
2021/09/22 01:34:25;;;;;;;157.35;148.70;;;;;;;15.04;69.60;101989.19;686671;28;137551;-68
2021/09/22 01:35:09;;;;;;;120.57;113.85;;;;;;;15.05;69.52;101988.19;689258;28;137485;-69
2021/09/22 01:35:57;;;;;;;274.40;258.70;;;;;;;15.06;69.48;101991.72;687295;28;137650;-69
2021/09/22 01:36:21;;;;;;;73.82;70.13;;;;;;;15.08;69.53;101995.16;686470;28;115171;-69
2021/09/22 01:36:50;;;;;;;172.10;162.55;;;;;;;15.06;69.29;101997.19;683923;28;138168;-69
2021/09/22 01:37:12;;;;;;;502.42;471.30;;;;;;;15.06;69.51;101995.31;683116;28;67492;-69
2021/09/22 01:37:54;;;;;;;262.15;247.23;;;;;;;15.08;69.42;101995.16;680590;28;138256;-69
2021/09/22 01:38:34;;;;;;;314.10;295.50;;;;;;;15.09;69.36;101992.25;683987;28;137614;-69
2021/09/22 01:39:04;;;;;;;500.75;470.45;;;;;;;15.12;69.04;101991.91;689918;28;138974;-69
2021/09/22 01:39:27;;;;;;;201.90;190.50;;;;;;;15.10;68.71;101984.94;692634;28;45190;-69
2021/09/22 01:39:48;;;;;;;271.63;256.08;;;;;;;15.13;69.06;101990.84;689946;28;45201;-69
2021/09/22 01:40:12;;;;;;;383.05;360.63;;;;;;;15.14;68.89;101989.00;686183;28;69483;-69
2021/09/22 01:40:34;;;;;;;666.60;624.83;;;;;;;15.16;68.93;101991.50;686904;28;69460;-69
2021/09/22 01:40:58;;;;;;;863.13;808.33;;;;;;;15.14;68.78;101991.72;685536;28;24209;-69
2021/09/22 01:41:20;;;;;;;696.05;653.10;;;;;;;15.16;68.94;101992.38;685276;28;90740;-69
2021/09/22 01:41:47;;;;;;;477.52;446.38;;;;;;;15.13;68.87;101992.72;683136;28;137838;-69